createdAt,value
2018-08-22T00:02:14.180Z,32.37
2018-08-22T00:04:41.997Z,36.00
2018-08-22T00:07:09.809Z,36.93
2018-08-22T00:09:37.624Z,50.87
2018-08-22T00:12:05.468Z,43.93
2018-08-22T00:14:33.276Z,35.10
2018-08-22T00:17:01.193Z,57.57
2018-08-22T00:19:29.029Z,37.93
2018-08-22T00:21:56.849Z,40.60
2018-08-22T00:24:24.652Z,34.47
2018-08-22T00:26:52.481Z,37.40
2018-08-22T00:29:20.420Z,37.63
2018-08-22T00:31:48.092Z,37.10
2018-08-22T00:34:15.901Z,31.00
2018-08-22T00:36:43.705Z,39.17
2018-08-22T00:39:11.521Z,37.40
2018-08-22T00:41:39.324Z,35.43
2018-08-22T00:44:07.137Z,30.93
2018-08-22T00:46:41.657Z,34.90
2018-08-22T00:49:09.472Z,33.10
2018-08-22T00:51:37.276Z,36.13
2018-08-22T00:54:05.095Z,35.37
2018-08-22T00:56:32.902Z,35.70
2018-08-22T00:59:00.713Z,37.70
2018-08-22T01:01:28.577Z,43.30
2018-08-22T01:03:56.393Z,41.93
2018-08-22T01:06:24.196Z,33.07
2018-08-22T01:08:52.004Z,33.57
2018-08-22T01:11:19.813Z,35.23
2018-08-22T01:13:47.629Z,35.10
2018-08-22T01:16:15.436Z,38.43
2018-08-22T01:18:43.260Z,38.73
2018-08-22T01:21:11.069Z,34.43
2018-08-22T01:23:38.877Z,33.07
2018-08-22T01:26:06.685Z,34.57
2018-08-22T01:28:34.500Z,35.77
2018-08-22T01:31:02.308Z,32.77
2018-08-22T01:33:30.159Z,34.63
2018-08-22T01:35:58.022Z,88.30
2018-08-22T01:38:25.853Z,255.70
2018-08-22T01:40:53.715Z,102.80
2018-08-22T01:43:21.550Z,112.33
2018-08-22T01:45:49.368Z,103.50
2018-08-22T01:48:17.176Z,89.93
2018-08-22T01:50:45.028Z,149.90
2018-08-22T01:53:12.861Z,135.67
2018-08-22T01:55:40.685Z,116.77
2018-08-22T01:58:08.509Z,118.47
2018-08-22T02:00:36.332Z,99.10
2018-08-22T02:03:04.166Z,89.80
2018-08-22T02:05:32.017Z,85.70
2018-08-22T02:07:59.850Z,91.80
2018-08-22T02:10:27.669Z,104.37
2018-08-22T02:12:55.494Z,89.40
2018-08-22T02:15:23.301Z,99.47
2018-08-22T02:17:51.141Z,105.37
2018-08-22T02:20:18.960Z,119.10
2018-08-22T02:22:46.781Z,91.97
2018-08-22T02:25:14.676Z,91.73
2018-08-22T02:27:42.446Z,112.20
2018-08-22T02:30:10.282Z,112.33
2018-08-22T02:32:38.097Z,90.50
2018-08-22T02:35:05.925Z,105.17
2018-08-22T02:37:33.754Z,106.23
2018-08-22T02:40:01.611Z,97.63
2018-08-22T02:42:29.447Z,130.53
2018-08-22T02:44:57.272Z,113.53
2018-08-22T02:47:25.355Z,95.27
2018-08-22T02:49:53.186Z,95.53
2018-08-22T02:52:21.022Z,85.87
2018-08-22T02:54:48.858Z,107.20
2018-08-22T02:57:16.681Z,102.53
2018-08-22T02:59:44.513Z,100.80
2018-08-22T03:02:12.346Z,85.87
2018-08-22T03:04:40.190Z,109.60
2018-08-22T03:07:08.018Z,90.47
2018-08-22T03:09:35.854Z,101.67
2018-08-22T03:12:03.679Z,103.90
2018-08-22T03:14:31.504Z,118.93
2018-08-22T03:16:59.327Z,177.23
2018-08-22T03:19:27.179Z,148.37
2018-08-22T03:21:55.022Z,164.97
2018-08-22T03:24:22.867Z,124.40
2018-08-22T03:26:50.692Z,101.70
2018-08-22T03:29:18.524Z,115.03
2018-08-22T03:31:46.346Z,114.00
2018-08-22T03:34:14.174Z,130.13
2018-08-22T03:36:42.002Z,92.17
2018-08-22T03:39:09.905Z,104.33
2018-08-22T03:41:37.750Z,108.17
2018-08-22T03:44:05.573Z,107.93
2018-08-22T03:46:34.215Z,208.57
2018-08-22T03:49:02.045Z,203.50
2018-08-22T03:51:29.922Z,184.20
2018-08-22T03:53:57.760Z,209.13
2018-08-22T03:56:25.595Z,207.13
2018-08-22T03:58:53.447Z,129.83
2018-08-22T04:01:21.264Z,104.80
2018-08-22T04:03:49.085Z,98.27
2018-08-22T04:06:16.921Z,93.47
2018-08-22T04:08:44.816Z,95.10
2018-08-22T04:11:12.727Z,94.40
2018-08-22T04:13:40.546Z,127.73
2018-08-22T04:16:08.395Z,133.07
2018-08-22T04:18:36.221Z,104.90
2018-08-22T04:21:04.057Z,94.40
2018-08-22T04:23:31.900Z,97.83
2018-08-22T04:25:59.746Z,89.73
2018-08-22T04:28:27.564Z,95.67
2018-08-22T04:30:55.449Z,115.80
2018-08-22T04:33:23.234Z,121.27
2018-08-22T04:35:51.077Z,147.97
2018-08-22T04:38:18.923Z,159.43
2018-08-22T04:40:46.766Z,149.67
2018-08-22T04:43:14.604Z,260.27
2018-08-22T04:45:42.441Z,341.63
2018-08-22T04:48:10.323Z,238.80
2018-08-22T04:50:38.126Z,286.30
2018-08-22T04:53:05.955Z,292.77
2018-08-22T04:55:33.798Z,310.27
2018-08-22T04:58:01.635Z,304.47
2018-08-22T05:00:29.467Z,153.70
2018-08-22T05:02:57.294Z,229.27
2018-08-22T05:05:25.128Z,79.27
2018-08-22T05:07:52.953Z,112.23
2018-08-22T05:10:20.794Z,133.87
2018-08-22T05:12:48.630Z,197.50
2018-08-22T05:15:16.452Z,246.97
2018-08-22T05:17:44.295Z,275.00
2018-08-22T05:20:12.130Z,276.47
2018-08-22T05:22:39.971Z,334.70
2018-08-22T05:25:07.815Z,324.90
2018-08-22T05:27:35.674Z,327.13
2018-08-22T05:30:03.547Z,385.50
2018-08-22T05:32:31.375Z,350.87
2018-08-22T05:34:59.205Z,359.40
2018-08-22T05:37:27.040Z,385.80
2018-08-22T05:39:54.905Z,395.50
2018-08-22T05:42:22.725Z,374.40
2018-08-22T05:44:50.632Z,391.67
2018-08-22T05:47:18.468Z,251.40
2018-08-22T05:49:46.284Z,297.33
2018-08-22T05:52:14.111Z,418.07
2018-08-22T05:54:41.942Z,381.50
2018-08-22T05:57:09.775Z,344.77
2018-08-22T05:59:37.602Z,361.63
2018-08-22T06:02:05.442Z,346.60
2018-08-22T06:04:33.276Z,334.33
2018-08-22T06:07:01.101Z,331.87
2018-08-22T06:09:28.929Z,347.40
2018-08-22T06:11:56.771Z,371.57
2018-08-22T06:14:24.592Z,339.73
2018-08-22T06:16:52.437Z,360.60
2018-08-22T06:19:20.279Z,332.67
2018-08-22T06:21:48.109Z,365.83
2018-08-22T06:24:15.942Z,355.53
2018-08-22T06:26:43.779Z,321.30
2018-08-22T06:29:11.613Z,316.97
2018-08-22T06:34:13.859Z,329.63
2018-08-22T06:36:41.685Z,381.67
2018-08-22T06:39:10.614Z,393.43
2018-08-22T06:41:38.753Z,417.67
2018-08-22T06:44:06.840Z,457.03
2018-08-22T06:46:34.664Z,456.30
2018-08-22T06:49:02.502Z,469.17
2018-08-22T06:51:30.355Z,457.43
2018-08-22T06:53:58.987Z,498.30
2018-08-22T06:56:26.842Z,459.80
2018-08-22T06:58:54.683Z,505.77
2018-08-22T07:01:22.542Z,505.27
2018-08-22T07:03:50.374Z,430.23
2018-08-22T07:06:18.223Z,321.93
2018-08-22T07:08:46.053Z,453.57
2018-08-22T07:11:13.885Z,310.67
2018-08-22T07:13:41.748Z,261.47
2018-08-22T07:16:09.594Z,233.30
2018-08-22T07:18:37.439Z,321.27
2018-08-22T07:21:05.322Z,244.90
2018-08-22T07:23:33.127Z,290.43
2018-08-22T07:26:00.970Z,272.73
2018-08-22T07:28:28.803Z,196.63
2018-08-22T07:30:56.639Z,201.07
2018-08-22T07:33:24.473Z,207.77
2018-08-22T07:35:52.332Z,218.90
2018-08-22T07:38:20.142Z,177.60
2018-08-22T07:40:47.978Z,188.87
2018-08-22T07:43:15.807Z,203.73
2018-08-22T07:45:43.653Z,240.47
2018-08-22T07:48:11.555Z,328.37
2018-08-22T07:50:39.384Z,324.00
2018-08-22T07:53:07.213Z,345.30
2018-08-22T07:55:36.682Z,369.10
2018-08-22T07:58:04.709Z,356.73
2018-08-22T08:00:32.614Z,363.07
2018-08-22T08:03:00.713Z,343.10
2018-08-22T08:05:28.716Z,344.83
2018-08-22T08:07:56.838Z,362.47
2018-08-22T08:10:30.686Z,386.43
2018-08-22T08:12:58.653Z,244.47
2018-08-22T08:15:26.511Z,253.13
2018-08-22T08:17:54.382Z,296.43
2018-08-22T08:20:22.511Z,327.70
2018-08-22T08:22:50.364Z,319.60
2018-08-22T08:25:18.680Z,272.30
2018-08-22T08:27:46.704Z,190.73
2018-08-22T08:30:14.748Z,207.40
2018-08-22T08:32:42.867Z,267.97
2018-08-22T08:35:10.891Z,254.03
2018-08-22T08:37:38.906Z,198.47
2018-08-22T08:40:06.913Z,312.63
2018-08-22T08:42:34.932Z,235.10
2018-08-22T08:45:03.043Z,260.43
2018-08-22T08:47:31.063Z,266.93
2018-08-22T08:49:59.073Z,301.93
2018-08-22T08:52:27.098Z,312.23
2018-08-22T08:54:55.116Z,287.97
2018-08-22T08:57:23.168Z,287.90
2018-08-22T08:59:51.146Z,276.33
2018-08-22T09:02:19.162Z,291.10
2018-08-22T09:04:47.183Z,318.20
2018-08-22T09:07:15.219Z,289.17
2018-08-22T09:09:43.235Z,280.90
2018-08-22T09:12:11.273Z,253.73
2018-08-22T09:14:39.270Z,322.57
2018-08-22T09:17:13.839Z,222.40
2018-08-22T09:19:41.812Z,313.13
2018-08-22T09:22:09.899Z,277.73
2018-08-22T09:24:37.914Z,298.83
2018-08-22T09:27:05.957Z,259.93
2018-08-22T09:29:34.043Z,291.70
2018-08-22T09:32:02.011Z,266.60
2018-08-22T09:34:30.049Z,319.87
2018-08-22T09:36:58.081Z,322.17
2018-08-22T09:39:26.207Z,325.23
2018-08-22T09:41:54.134Z,303.83
2018-08-22T09:44:22.157Z,315.40
2018-08-22T09:46:50.201Z,318.87
2018-08-22T09:49:18.191Z,307.93
2018-08-22T09:51:46.196Z,312.07
2018-08-22T09:54:14.210Z,276.03
2018-08-22T09:56:42.224Z,288.20
2018-08-22T09:59:10.235Z,315.33
2018-08-22T10:01:44.175Z,267.47
2018-08-22T10:04:12.196Z,302.07
2018-08-22T10:06:41.560Z,297.17
2018-08-22T10:09:10.586Z,249.50
2018-08-22T10:11:38.617Z,308.07
2018-08-22T10:14:06.634Z,315.63
2018-08-22T10:16:34.635Z,305.70
2018-08-22T10:19:02.699Z,276.80
2018-08-22T10:21:30.678Z,315.40
2018-08-22T10:23:58.689Z,268.07
2018-08-22T10:26:26.709Z,242.17
2018-08-22T10:28:54.841Z,256.87
2018-08-22T10:31:23.590Z,244.93
2018-08-22T10:33:51.628Z,290.40
2018-08-22T10:36:19.704Z,279.30
2018-08-22T10:38:47.719Z,241.00
2018-08-22T10:41:15.723Z,276.37
2018-08-22T10:43:43.730Z,236.00
2018-08-22T10:46:11.741Z,283.07
2018-08-22T10:48:39.750Z,270.10
2018-08-22T10:51:08.360Z,271.93
2018-08-22T10:53:36.469Z,241.23
2018-08-22T10:56:04.481Z,210.13
2018-08-22T10:58:32.571Z,238.63
2018-08-22T11:01:01.055Z,249.23
2018-08-22T11:03:29.450Z,295.10
2018-08-22T11:05:57.459Z,297.53
2018-08-22T11:08:25.482Z,274.23
2018-08-22T11:10:53.499Z,284.80
2018-08-22T11:13:21.527Z,283.53
2018-08-22T11:15:49.670Z,250.93
2018-08-22T11:18:17.612Z,261.37
2018-08-22T11:20:46.851Z,295.33
2018-08-22T11:23:27.876Z,289.73
2018-08-22T11:26:07.521Z,281.57
2018-08-22T11:28:47.272Z,268.30
2018-08-22T11:31:27.466Z,241.20
2018-08-22T11:34:07.114Z,288.23
2018-08-22T11:36:34.830Z,287.00
2018-08-22T11:39:04.394Z,298.57
2018-08-22T11:41:32.398Z,291.57
2018-08-22T11:44:00.415Z,279.80
2018-08-22T11:46:28.422Z,276.33
2018-08-22T11:48:56.448Z,286.40
2018-08-22T11:51:24.470Z,283.70
2018-08-22T11:53:52.480Z,300.97
2018-08-22T11:56:20.491Z,296.67
2018-08-22T11:58:48.503Z,296.80
2018-08-22T12:01:16.521Z,294.33
2018-08-22T12:03:44.575Z,316.70
2018-08-22T12:06:12.595Z,302.90
2018-08-22T12:08:40.601Z,279.67
2018-08-22T12:11:08.622Z,261.67
2018-08-22T12:13:36.634Z,302.87
2018-08-22T12:16:04.756Z,248.17
2018-08-22T12:18:32.746Z,284.10
2018-08-22T12:21:00.760Z,321.57
2018-08-22T12:23:28.790Z,312.60
2018-08-22T12:25:56.796Z,287.80
2018-08-22T12:28:24.820Z,306.17
2018-08-22T12:30:52.897Z,315.70
2018-08-22T12:33:20.893Z,305.67
2018-08-22T12:35:48.914Z,292.27
2018-08-22T12:38:16.935Z,302.97
2018-08-22T12:40:44.946Z,313.47
2018-08-22T12:43:12.955Z,284.87
2018-08-22T12:45:40.970Z,301.70
2018-08-22T12:48:08.981Z,292.23
2018-08-22T12:50:37.003Z,224.87
2018-08-22T12:53:05.414Z,233.47
2018-08-22T12:55:33.455Z,309.37
2018-08-22T12:58:01.458Z,255.10
2018-08-22T13:00:29.474Z,265.77
2018-08-22T13:02:57.491Z,280.30
2018-08-22T13:05:25.512Z,310.33
2018-08-22T13:07:53.515Z,257.90
2018-08-22T13:10:21.535Z,248.37
2018-08-22T13:12:49.540Z,291.53
2018-08-22T13:15:17.574Z,263.37
2018-08-22T13:17:45.588Z,334.10
2018-08-22T13:20:13.620Z,272.23
2018-08-22T13:22:41.631Z,255.47
2018-08-22T13:25:09.644Z,287.83
2018-08-22T13:27:37.666Z,298.13
2018-08-22T13:30:06.086Z,293.07
2018-08-22T13:32:34.092Z,304.73
2018-08-22T13:35:02.095Z,320.33
2018-08-22T13:37:30.108Z,259.10
2018-08-22T13:39:58.119Z,376.57
2018-08-22T13:42:26.744Z,315.63
2018-08-22T13:44:54.747Z,279.90
2018-08-22T13:47:22.758Z,372.53
2018-08-22T13:49:50.760Z,348.10
2018-08-22T13:52:18.771Z,349.90
2018-08-22T13:54:46.770Z,334.23
2018-08-22T13:57:14.784Z,323.03
2018-08-22T13:59:42.791Z,348.57
2018-08-22T14:02:10.804Z,303.07
2018-08-22T14:04:38.802Z,283.73
2018-08-22T14:07:06.824Z,316.57
2018-08-22T14:09:34.859Z,313.33
2018-08-22T14:12:02.862Z,340.47
2018-08-22T14:14:30.882Z,352.13
2018-08-22T14:16:58.892Z,323.97
2018-08-22T14:19:26.898Z,360.80
2018-08-22T14:21:54.912Z,373.23
2018-08-22T14:24:22.915Z,352.40
2018-08-22T14:26:50.932Z,353.23
2018-08-22T14:29:18.926Z,368.10
2018-08-22T14:31:46.934Z,367.47
2018-08-22T14:34:14.947Z,349.97
2018-08-22T14:36:42.958Z,358.77
2018-08-22T14:39:12.180Z,321.33
2018-08-22T14:41:40.254Z,329.30
2018-08-22T14:44:08.343Z,351.77
2018-08-22T14:46:36.346Z,358.40
2018-08-22T14:49:10.678Z,329.40
2018-08-22T14:51:38.699Z,331.30
2018-08-22T14:54:06.747Z,271.33
2018-08-22T14:56:34.809Z,358.20
2018-08-22T14:59:02.775Z,307.63
2018-08-22T15:01:30.777Z,304.47
2018-08-22T15:03:58.795Z,340.57
2018-08-22T15:06:26.799Z,334.90
2018-08-22T15:09:01.927Z,295.77
2018-08-22T15:11:29.972Z,291.13
2018-08-22T15:13:57.976Z,295.37
2018-08-22T15:16:26.048Z,201.40
2018-08-22T15:18:54.358Z,208.60
2018-08-22T15:21:22.386Z,285.83
2018-08-22T15:23:50.583Z,325.47
2018-08-22T15:26:18.586Z,291.50
2018-08-22T15:28:46.591Z,275.90
2018-08-22T15:31:14.604Z,213.83
2018-08-22T15:33:43.172Z,206.53
2018-08-22T15:36:11.187Z,206.00
2018-08-22T15:38:39.203Z,187.20
2018-08-22T15:41:07.294Z,226.67
2018-08-22T15:43:35.459Z,215.33
2018-08-22T15:46:03.458Z,213.50
2018-08-22T15:48:31.563Z,932.93
2018-08-22T15:50:59.945Z,951.27
2018-08-22T15:53:27.967Z,929.30
2018-08-22T15:55:55.975Z,902.73
2018-08-22T15:58:23.988Z,953.20
2018-08-22T16:00:53.147Z,971.27
2018-08-22T16:03:21.811Z,1010.63
2018-08-22T16:05:50.561Z,959.77
2018-08-22T16:08:20.115Z,905.30
2018-08-22T16:10:48.111Z,971.10
2018-08-22T16:13:21.639Z,929.03
2018-08-22T16:15:50.849Z,948.53
2018-08-22T16:18:18.901Z,912.07
2018-08-22T16:20:54.383Z,991.00
2018-08-22T16:23:24.744Z,966.27
2018-08-22T16:25:53.480Z,955.67
2018-08-22T16:28:21.963Z,971.93
2018-08-22T16:30:57.042Z,996.17
2018-08-22T16:33:20.779Z,995.20
2018-08-22T16:35:48.800Z,1000.23
2018-08-22T16:38:16.816Z,961.60
2018-08-22T16:40:51.020Z,994.90
2018-08-22T16:43:35.939Z,973.83
2018-08-22T16:46:06.039Z,913.47
2018-08-22T16:48:34.046Z,888.10
2018-08-22T16:51:02.059Z,890.33
2018-08-22T16:53:30.087Z,826.23
2018-08-22T16:55:58.156Z,833.77
2018-08-22T16:58:26.279Z,864.30
2018-08-22T17:00:55.293Z,817.27
2018-08-22T17:03:23.307Z,819.67
2018-08-22T17:05:55.067Z,779.80
2018-08-22T17:08:23.083Z,746.70
2018-08-22T17:10:55.467Z,714.80
2018-08-22T17:13:29.412Z,1114.60
2018-08-22T17:15:58.618Z,880.13
2018-08-22T17:18:26.918Z,767.47
2018-08-22T17:20:54.928Z,707.77
2018-08-22T17:23:23.030Z,660.83
2018-08-22T17:25:50.947Z,618.67
2018-08-22T17:28:23.682Z,630.37
2018-08-22T17:30:51.754Z,586.33
2018-08-22T17:33:19.770Z,586.63
2018-08-22T17:35:47.787Z,594.53
2018-08-22T17:38:15.802Z,603.00
2018-08-22T17:40:43.814Z,596.37
2018-08-22T17:43:11.816Z,573.60
2018-08-22T17:45:40.655Z,574.73
2018-08-22T17:48:08.659Z,592.43
2018-08-22T17:50:36.676Z,716.60
2018-08-22T17:53:06.005Z,659.30
2018-08-22T17:55:34.028Z,710.77
2018-08-22T17:58:02.029Z,645.00
2018-08-22T18:00:32.856Z,591.97
2018-08-22T18:03:00.867Z,645.80
2018-08-22T18:05:31.871Z,673.27
2018-08-22T18:08:01.759Z,816.77
2018-08-22T18:10:33.932Z,939.13
2018-08-22T18:13:07.326Z,1035.97
2018-08-22T18:15:35.348Z,1012.87
2018-08-22T18:18:03.418Z,1053.97
2018-08-22T18:20:32.340Z,1021.33
2018-08-22T18:23:00.348Z,1009.83
2018-08-22T18:25:28.363Z,1021.23
2018-08-22T18:28:00.720Z,1116.73
2018-08-22T18:30:28.723Z,1051.23
2018-08-22T18:32:56.735Z,1022.43
2018-08-22T18:35:24.775Z,1013.93
2018-08-22T18:37:52.783Z,1024.47
2018-08-22T18:40:23.212Z,1061.00
2018-08-22T18:42:53.595Z,1017.27
2018-08-22T18:45:22.147Z,944.07
2018-08-22T18:47:50.344Z,1048.77
2018-08-22T18:50:18.643Z,979.23
2018-08-22T18:52:50.847Z,943.33
2018-08-22T18:55:20.914Z,930.23
2018-08-22T18:57:48.966Z,913.30
2018-08-22T19:00:16.989Z,668.17
2018-08-22T19:02:45.006Z,617.77
2018-08-22T19:05:19.763Z,587.37
2018-08-22T19:08:08.626Z,570.83
2018-08-22T19:10:37.738Z,593.13
2018-08-22T19:13:11.129Z,590.53
2018-08-22T19:15:39.154Z,655.23
2018-08-22T19:18:08.583Z,678.37
2018-08-22T19:20:36.647Z,703.80
2018-08-22T19:23:04.754Z,693.37
2018-08-22T19:25:33.062Z,701.77
2018-08-22T19:28:01.497Z,725.13
2018-08-22T19:30:29.633Z,746.13
2018-08-22T19:32:57.631Z,722.73
2018-08-22T19:35:25.695Z,722.43
2018-08-22T19:37:59.103Z,712.47
2018-08-22T19:40:27.120Z,670.17
2018-08-22T19:42:55.127Z,726.83
2018-08-22T19:45:23.135Z,625.90
2018-08-22T19:47:51.134Z,652.33
2018-08-22T19:50:19.165Z,710.30
2018-08-22T19:52:47.207Z,657.20
2018-08-22T19:55:15.214Z,736.30
2018-08-22T19:57:44.678Z,721.10
2018-08-22T20:00:13.709Z,679.33
2018-08-22T20:02:41.664Z,810.30
2018-08-22T20:05:11.876Z,890.87
2018-08-22T20:07:40.297Z,861.23
2018-08-22T20:10:09.063Z,876.40
2018-08-22T20:12:48.763Z,892.73
2018-08-22T20:15:16.826Z,915.40
2018-08-22T20:17:46.478Z,940.73
2018-08-22T20:20:14.662Z,923.60
2018-08-22T20:22:43.974Z,939.17
2018-08-22T20:25:12.321Z,939.93
2018-08-22T20:27:40.423Z,984.67
2018-08-22T20:30:12.630Z,933.20
2018-08-22T20:32:47.206Z,998.07
2018-08-22T20:35:19.476Z,1007.17
2018-08-22T20:37:47.477Z,1027.10
2018-08-22T20:40:15.491Z,1094.50
2018-08-22T20:42:43.567Z,1080.67
2018-08-22T20:45:14.143Z,1101.90
2018-08-22T20:47:42.195Z,1128.43
2018-08-22T20:50:10.243Z,1173.00
2018-08-22T20:52:38.401Z,1164.70
2018-08-22T20:55:08.688Z,1160.53
2018-08-22T20:57:36.699Z,1160.27
2018-08-22T21:00:05.521Z,1251.00
2018-08-22T21:02:33.582Z,1205.80
2018-08-22T21:05:01.544Z,1057.87
2018-08-22T21:07:34.883Z,1021.47
2018-08-22T21:10:02.887Z,1025.17
2018-08-22T21:12:30.898Z,1018.07
2018-08-22T21:14:59.016Z,1234.23
2018-08-22T21:17:27.036Z,1243.77
2018-08-22T21:19:55.048Z,1190.27
2018-08-22T21:22:26.805Z,1226.60
2018-08-22T21:24:56.451Z,1263.67
2018-08-22T21:27:24.443Z,1197.20
2018-08-22T21:29:52.571Z,1222.33
2018-08-22T21:32:20.757Z,1000.43
2018-08-22T21:34:48.995Z,954.53
2018-08-22T21:37:24.894Z,980.40
2018-08-22T21:39:52.899Z,978.67
2018-08-22T21:42:25.224Z,873.67
2018-08-22T21:44:53.230Z,842.00
2018-08-22T21:47:21.262Z,817.77
2018-08-22T21:49:49.321Z,882.63
2018-08-22T21:52:17.364Z,912.10
2018-08-22T21:54:45.418Z,931.40
2018-08-22T21:57:13.373Z,1078.00
2018-08-22T21:59:41.388Z,1155.53
2018-08-22T22:02:10.419Z,1068.13
2018-08-22T22:04:39.539Z,1144.07
2018-08-22T22:07:08.603Z,1117.33
2018-08-22T22:09:37.311Z,1147.50
2018-08-22T22:12:09.581Z,1999.90
2018-08-22T22:14:37.607Z,886.30
2018-08-22T22:17:06.115Z,835.83
2018-08-22T22:19:35.349Z,792.97
2018-08-22T22:22:03.835Z,771.93
2018-08-22T22:24:44.041Z,716.50
2018-08-22T22:27:12.081Z,732.13
2018-08-22T22:29:40.261Z,705.93
2018-08-22T22:32:08.502Z,705.30
2018-08-22T22:34:37.330Z,748.53
2018-08-22T22:37:05.601Z,718.77
2018-08-22T22:39:43.773Z,702.70
2018-08-22T22:42:17.251Z,725.90
2018-08-22T22:44:48.561Z,711.27
2018-08-22T22:47:22.063Z,680.17
2018-08-22T22:49:50.708Z,710.50
2018-08-22T22:52:26.375Z,679.40
2018-08-22T22:54:55.589Z,700.10
2018-08-22T22:57:23.823Z,663.87
2018-08-22T22:59:52.217Z,698.80
2018-08-22T23:02:23.088Z,690.53
2018-08-22T23:04:52.093Z,676.93
2018-08-22T23:07:23.878Z,1110.97
2018-08-22T23:09:52.930Z,878.67
2018-08-22T23:12:26.409Z,1114.27
2018-08-22T23:14:55.340Z,711.33
2018-08-22T23:17:23.370Z,525.60
2018-08-22T23:20:03.940Z,482.33
2018-08-22T23:22:31.991Z,468.60
2018-08-22T23:25:00.124Z,431.93
2018-08-22T23:27:28.138Z,426.20
2018-08-22T23:29:56.171Z,398.03
2018-08-22T23:32:24.170Z,422.40
2018-08-22T23:34:52.178Z,418.67
2018-08-22T23:37:20.173Z,419.63
2018-08-22T23:39:48.182Z,449.40
2018-08-22T23:42:16.177Z,383.67
2018-08-22T23:44:45.007Z,418.60
2018-08-22T23:47:13.008Z,499.67
2018-08-22T23:49:44.786Z,575.90
2018-08-22T23:52:12.830Z,745.00
2018-08-22T23:54:45.218Z,707.00
2018-08-22T23:57:19.211Z,719.67
2018-08-22T23:59:47.262Z,835.90
